KPIH/PIH METAR and TAF weather

Enter ICAO airport designator
Station Type Date Time Source
KPIH METAR 2022/01/29 10:53 UTC NOAA

KPIH 291053Z AUTO 00000KT 10SM CLR M19/M22 A3046 RMK AO2 SLP390 T11941222 TSNO


Station Type Date Time Source
KPIH Decoded METAR 2022/01/29 10:53 UTC NOAA

POCATELLO REGIONAL AIRPORT, ID, United States (KPIH) 42-55N 112-36W 1359M
Jan 29, 2022 - 05:53 AM EST / 2022.01.29 1053 UTC
Wind: Calm:0
Visibility: 10 mile(s):0
Sky conditions: clear
Temperature: -2.9 F (-19.4 C)
Dew Point: -8.0 F (-22.2 C)
Relative Humidity: 78%
Pressure (altimeter): 30.46 in. Hg (1031 hPa)
ob: KPIH 291053Z AUTO 00000KT 10SM CLR M19/M22 A3046 RMK AO2 SLP390 T11941222 TSNO
cycle: 11

Station Type Date Time Source
KPIH TAF 2022/01/29 06:22 UTC NOAA

TAF KPIH 290520Z 2906/3006 03006KT P6SM VCFG FEW250

Example: see airport list